createdAt,value
2018-07-07T22:21:56.175Z,98488.94
2018-07-07T22:23:02.505Z,98491.24
2018-07-07T22:24:09.219Z,98491.59
2018-07-07T22:25:16.461Z,98493.73
2018-07-07T22:26:21.807Z,98498.70
2018-07-07T22:27:28.671Z,98493.83
2018-07-07T22:28:36.973Z,98492.53
2018-07-07T22:29:43.220Z,98497.27
2018-07-07T22:32:27.783Z,98495.31
2018-07-07T22:33:35.501Z,98497.53
2018-07-07T22:34:41.370Z,98498.35
2018-07-07T22:35:55.277Z,98496.13
2018-07-07T22:37:00.572Z,98497.41
2018-07-07T22:38:09.341Z,98494.63
2018-07-07T22:39:15.607Z,98495.66
2018-07-07T22:40:22.437Z,98498.09
2018-07-07T22:41:33.115Z,98501.02
2018-07-07T22:42:40.331Z,98500.20
2018-07-07T22:43:46.255Z,98502.75
2018-07-07T22:44:52.645Z,98509.34
2018-07-07T22:45:59.660Z,98505.87
2018-07-07T22:47:04.656Z,98504.37
2018-07-07T22:48:11.493Z,98506.43
2018-07-07T22:49:19.216Z,98506.56
2018-07-07T22:50:25.490Z,98498.36
2018-07-07T22:51:32.561Z,98503.52
2018-07-07T22:52:38.197Z,98505.03
2018-07-07T22:53:43.108Z,98503.99
2018-07-07T22:54:48.265Z,98499.11
2018-07-07T22:55:54.762Z,98502.77
2018-07-07T22:57:00.785Z,98500.96
2018-07-07T22:58:05.906Z,98499.77
2018-07-07T22:59:12.179Z,98506.81
2018-07-07T23:00:18.484Z,98504.16
2018-07-07T23:01:24.078Z,98499.77
2018-07-07T23:02:30.513Z,98495.45
2018-07-07T23:03:35.741Z,98496.69
2018-07-07T23:04:40.851Z,98502.25
2018-07-07T23:05:54.410Z,98501.87
2018-07-07T23:07:00.269Z,98499.94
2018-07-07T23:08:05.490Z,98497.91
2018-07-07T23:09:14.553Z,98498.02
2018-07-07T23:10:20.775Z,98501.84
2018-07-07T23:11:25.930Z,98499.46
2018-07-07T23:12:32.387Z,98497.16
2018-07-07T23:13:41.943Z,98498.45
2018-07-07T23:14:48.014Z,98498.72
2018-07-07T23:15:53.932Z,98498.98
2018-07-07T23:17:00.291Z,98496.98
2018-07-07T23:18:06.336Z,98503.11
2018-07-07T23:19:12.621Z,98500.84
2018-07-07T23:20:19.148Z,98502.45
2018-07-07T23:21:24.297Z,98499.13
2018-07-07T23:22:44.075Z,98503.64
2018-07-07T23:23:49.322Z,98499.75
2018-07-07T23:24:55.246Z,98498.02
2018-07-07T23:26:01.854Z,98501.84
2018-07-07T23:27:07.255Z,98493.75
2018-07-07T23:28:15.910Z,98498.38
2018-07-07T23:29:22.418Z,98495.48
2018-07-07T23:30:32.850Z,98496.30
2018-07-07T23:31:38.563Z,98498.91
2018-07-07T23:32:44.656Z,98494.63
2018-07-07T23:33:52.313Z,98492.89
2018-07-07T23:34:59.006Z,98495.13
2018-07-07T23:36:04.284Z,98492.83
2018-07-07T23:37:12.671Z,98493.30
2018-07-07T23:38:19.604Z,98490.98
2018-07-07T23:39:25.385Z,98497.58
2018-07-07T23:40:31.822Z,98491.80
2018-07-07T23:41:38.824Z,98494.29
2018-07-07T23:42:46.448Z,98489.78
2018-07-07T23:43:52.787Z,98495.56
2018-07-07T23:44:59.897Z,98487.98
2018-07-07T23:46:06.604Z,98490.36
2018-07-07T23:47:12.562Z,98493.17
2018-07-07T23:48:19.746Z,98492.80
2018-07-07T23:49:28.172Z,98494.67
2018-07-07T23:50:37.221Z,98493.52
2018-07-07T23:51:44.101Z,98494.50
2018-07-07T23:52:49.688Z,98495.18
2018-07-07T23:53:56.668Z,98495.30
2018-07-07T23:55:02.626Z,98491.33
2018-07-07T23:56:07.958Z,98490.81
2018-07-07T23:57:13.232Z,98491.85
2018-07-07T23:58:17.800Z,98488.28
2018-07-07T23:59:22.681Z,98490.45
